Time;durP1;ratioP1;P1;durP2;ratioP2;P2;SDS_P1;SDS_P2;PMS_P1;PMS_P2;Temp;Humidity;BMP_temperature;BMP_pressure;BME280_temperature;BME280_humidity;BME280_pressure;Samples;Min_cycle;Max_cycle;Signal;HPM_P1;HPM_P2
2022/01/13 00:01:30;;;;;;;42.95;23.95;;;;;;;;;;5051067;28;20106;-58
2022/01/13 00:03:57;;;;;;;47.47;25.42;;;;;;;;;;5051016;28;20049;-58
2022/01/13 00:06:23;;;;;;;45.75;25.30;;;;;;;;;;5050173;28;20451;-58
2022/01/13 00:08:49;;;;;;;43.97;24.65;;;;;;;;;;5050834;28;20041;-58
2022/01/13 00:11:15;;;;;;;46.65;25.45;;;;;;;;;;5051079;28;20053;-59
2022/01/13 00:13:48;;;;;;;46.42;25.63;;;;;;;;;;5050322;28;20045;-59
2022/01/13 00:16:37;;;;;;;43.85;24.65;;;;;;;;;;5051081;28;20041;-59
2022/01/13 00:19:17;;;;;;;47.67;25.80;;;;;;;;;;5050673;28;20045;-59
2022/01/13 00:21:50;;;;;;;43.40;24.73;;;;;;;;;;5049830;28;20056;-59
2022/01/13 00:24:16;;;;;;;42.60;23.13;;;;;;;;;;5051119;28;20055;-59
2022/01/13 00:26:42;;;;;;;41.55;23.50;;;;;;;;;;5050543;28;20501;-58
2022/01/13 00:29:10;;;;;;;45.45;24.48;;;;;;;;;;5050241;28;20124;-58
2022/01/13 00:31:40;;;;;;;44.20;24.63;;;;;;;;;;5050781;28;20049;-58
2022/01/13 00:34:07;;;;;;;42.40;24.80;;;;;;;;;;5050532;28;20048;-58
2022/01/13 00:36:34;;;;;;;43.15;24.88;;;;;;;;;;5051274;28;20103;-58
2022/01/13 00:39:00;;;;;;;44.92;24.48;;;;;;;;;;5050664;28;20037;-58
2022/01/13 00:41:29;;;;;;;42.33;23.52;;;;;;;;;;5050050;28;20118;-58
2022/01/13 00:43:55;;;;;;;41.55;23.10;;;;;;;;;;5050386;28;20136;-58
2022/01/13 00:46:26;;;;;;;41.45;23.25;;;;;;;;;;5050591;28;20053;-59
2022/01/13 00:48:53;;;;;;;40.75;22.95;;;;;;;;;;5049833;28;20048;-60
2022/01/13 00:51:19;;;;;;;44.60;23.88;;;;;;;;;;5050718;28;20446;-59
2022/01/13 00:53:46;;;;;;;43.60;24.08;;;;;;;;;;5050348;28;20099;-59
2022/01/13 00:56:12;;;;;;;43.92;24.15;;;;;;;;;;5049998;28;20041;-59
2022/01/13 00:58:39;;;;;;;43.30;24.15;;;;;;;;;;5050497;28;20146;-58
2022/01/13 01:01:06;;;;;;;38.95;22.38;;;;;;;;;;5050247;28;20073;-58
2022/01/13 01:03:34;;;;;;;40.95;22.88;;;;;;;;;;5049700;28;20546;-59
2022/01/13 01:06:03;;;;;;;45.53;24.15;;;;;;;;;;5050121;28;20578;-59
2022/01/13 01:08:30;;;;;;;40.55;22.75;;;;;;;;;;5054137;28;20045;-59
2022/01/13 01:10:56;;;;;;;43.15;23.58;;;;;;;;;;5053215;28;20049;-59
2022/01/13 01:13:27;;;;;;;41.28;22.63;;;;;;;;;;5054090;28;20049;-59
2022/01/13 01:15:56;;;;;;;41.45;22.67;;;;;;;;;;5054010;28;20141;-59
2022/01/13 01:18:30;;;;;;;40.35;21.88;;;;;;;;;;5053423;28;20045;-59
2022/01/13 01:21:31;;;;;;;42.22;23.45;;;;;;;;;;5053936;28;20140;-59
2022/01/13 01:24:16;;;;;;;38.17;21.83;;;;;;;;;;5053223;28;20049;-59
2022/01/13 01:26:45;;;;;;;41.55;22.15;;;;;;;;;;5053996;28;20041;-59
2022/01/13 01:29:20;;;;;;;40.67;22.08;;;;;;;;;;5053834;28;20488;-59
2022/01/13 01:31:48;;;;;;;41.75;22.17;;;;;;;;;;5052829;28;20049;-58
2022/01/13 01:34:27;;;;;;;44.50;22.40;;;;;;;;;;5053661;28;20045;-59
2022/01/13 01:36:55;;;;;;;38.05;20.48;;;;;;;;;;5053817;28;20110;-58
2022/01/13 01:39:22;;;;;;;44.15;23.75;;;;;;;;;;5053149;28;20048;-59
2022/01/13 01:41:49;;;;;;;43.92;23.38;;;;;;;;;;5053542;28;20045;-59
2022/01/13 01:44:25;;;;;;;41.63;21.88;;;;;;;;;;5053552;28;20091;-60
2022/01/13 01:46:52;;;;;;;43.00;21.58;;;;;;;;;;5053265;28;20045;-59
2022/01/13 01:49:20;;;;;;;39.70;22.35;;;;;;;;;;5053590;28;20227;-59
2022/01/13 01:51:47;;;;;;;39.58;21.70;;;;;;;;;;5052434;28;20879;-59
2022/01/13 01:54:15;;;;;;;38.22;20.65;;;;;;;;;;5053500;28;20049;-59
2022/01/13 01:56:43;;;;;;;39.95;22.02;;;;;;;;;;5053515;28;20093;-59
2022/01/13 01:59:12;;;;;;;40.00;21.27;;;;;;;;;;5052485;28;20053;-59
2022/01/13 02:01:39;;;;;;;38.30;20.58;;;;;;;;;;5053608;28;20044;-59
2022/01/13 02:04:05;;;;;;;39.20;21.75;;;;;;;;;;5052867;28;20045;-59
2022/01/13 02:06:31;;;;;;;40.50;21.52;;;;;;;;;;5052367;28;20115;-59
2022/01/13 02:08:59;;;;;;;40.78;22.13;;;;;;;;;;5052965;28;20055;-59
2022/01/13 02:11:27;;;;;;;36.45;20.60;;;;;;;;;;5053089;28;20048;-59
2022/01/13 02:13:57;;;;;;;38.55;21.42;;;;;;;;;;5051977;28;20044;-58
2022/01/13 02:16:38;;;;;;;38.55;22.40;;;;;;;;;;5053279;28;20047;-58
2022/01/13 02:19:04;;;;;;;38.47;21.52;;;;;;;;;;5052168;28;20408;-58
2022/01/13 02:21:32;;;;;;;37.13;20.60;;;;;;;;;;5052284;28;20052;-58
2022/01/13 02:24:01;;;;;;;35.80;20.58;;;;;;;;;;5052513;28;20479;-58
2022/01/13 02:26:28;;;;;;;35.75;19.85;;;;;;;;;;5052809;28;20048;-58
2022/01/13 02:28:54;;;;;;;38.08;21.05;;;;;;;;;;5051981;28;20072;-58
2022/01/13 02:31:21;;;;;;;37.70;20.75;;;;;;;;;;5052882;28;20053;-58
2022/01/13 02:33:47;;;;;;;36.80;20.67;;;;;;;;;;5051736;28;20103;-58
2022/01/13 02:36:16;;;;;;;36.25;20.42;;;;;;;;;;5052714;28;20045;-58
2022/01/13 02:38:47;;;;;;;35.35;19.95;;;;;;;;;;5052253;28;20045;-58
2022/01/13 02:41:13;;;;;;;35.25;20.23;;;;;;;;;;5052135;28;20083;-58
2022/01/13 02:43:39;;;;;;;34.05;18.63;;;;;;;;;;5052709;28;20053;-59
2022/01/13 02:46:28;;;;;;;34.60;19.00;;;;;;;;;;5052396;28;20094;-59
2022/01/13 02:48:55;;;;;;;32.75;18.73;;;;;;;;;;5051466;28;20127;-59
2022/01/13 02:51:21;;;;;;;33.00;19.17;;;;;;;;;;5052288;28;20488;-59
2022/01/13 02:53:48;;;;;;;30.98;18.65;;;;;;;;;;5052156;28;20086;-59
2022/01/13 02:56:15;;;;;;;34.95;20.30;;;;;;;;;;5051732;28;20049;-59
2022/01/13 02:58:41;;;;;;;31.20;18.02;;;;;;;;;;5052235;28;20052;-59
2022/01/13 03:01:07;;;;;;;33.72;19.17;;;;;;;;;;5052254;28;20104;-59
2022/01/13 03:03:35;;;;;;;31.08;18.23;;;;;;;;;;5051337;28;20044;-58
2022/01/13 03:06:05;;;;;;;31.90;18.30;;;;;;;;;;5051766;28;20111;-59
2022/01/13 03:08:31;;;;;;;32.17;18.20;;;;;;;;;;5052203;28;20106;-59
2022/01/13 03:10:59;;;;;;;31.90;18.15;;;;;;;;;;5051090;28;20049;-59
2022/01/13 03:13:28;;;;;;;33.50;18.58;;;;;;;;;;5052019;28;20447;-59
2022/01/13 03:15:54;;;;;;;32.85;18.75;;;;;;;;;;5050974;28;20111;-58
2022/01/13 03:18:20;;;;;;;30.63;17.33;;;;;;;;;;5051898;28;20103;-59
2022/01/13 03:20:47;;;;;;;30.30;17.08;;;;;;;;;;5051599;28;20049;-59
2022/01/13 03:23:16;;;;;;;28.25;15.93;;;;;;;;;;5051324;28;20103;-59
2022/01/13 03:25:44;;;;;;;31.55;18.17;;;;;;;;;;5051546;28;20041;-58
2022/01/13 03:28:16;;;;;;;32.30;17.17;;;;;;;;;;5051684;28;20507;-59
2022/01/13 03:30:42;;;;;;;28.45;17.35;;;;;;;;;;5049762;28;20048;-59
2022/01/13 03:33:08;;;;;;;29.10;16.10;;;;;;;;;;5051552;28;20049;-59
2022/01/13 03:35:35;;;;;;;27.00;16.15;;;;;;;;;;5051703;28;20099;-59
2022/01/13 03:38:01;;;;;;;26.48;15.77;;;;;;;;;;5050879;28;20480;-59
2022/01/13 03:40:27;;;;;;;27.30;16.05;;;;;;;;;;5051325;28;20045;-59
2022/01/13 03:42:54;;;;;;;26.50;15.70;;;;;;;;;;5051317;28;20044;-59
2022/01/13 03:45:22;;;;;;;26.45;16.23;;;;;;;;;;5050527;28;20053;-59
2022/01/13 03:47:48;;;;;;;28.90;16.80;;;;;;;;;;5051051;28;20103;-59
2022/01/13 03:50:14;;;;;;;28.08;16.25;;;;;;;;;;5051428;28;20098;-59
2022/01/13 03:52:55;;;;;;;26.08;16.70;;;;;;;;;;5050740;28;20119;-58
2022/01/13 03:56:06;;;;;;;27.75;16.40;;;;;;;;;;5051224;28;20045;-59
2022/01/13 03:58:51;;;;;;;26.55;15.50;;;;;;;;;;5050542;28;20476;-58
2022/01/13 04:01:51;;;;;;;27.35;16.13;;;;;;;;;;5051111;28;20048;-58
2022/01/13 04:04:17;;;;;;;27.45;15.80;;;;;;;;;;5050787;28;20041;-58
2022/01/13 04:06:45;;;;;;;25.80;15.20;;;;;;;;;;5050445;28;20045;-58
2022/01/13 04:09:25;;;;;;;27.00;16.17;;;;;;;;;;5051033;28;20048;-58
2022/01/13 04:11:52;;;;;;;26.55;16.05;;;;;;;;;;5050835;28;20049;-58
2022/01/13 04:14:26;;;;;;;26.08;15.88;;;;;;;;;;5050177;28;20484;-58
2022/01/13 04:16:54;;;;;;;24.55;15.05;;;;;;;;;;5050829;28;20141;-58
2022/01/13 04:19:20;;;;;;;26.58;16.52;;;;;;;;;;5050312;28;20045;-58
2022/01/13 04:21:46;;;;;;;26.15;15.27;;;;;;;;;;5050607;28;20491;-58
2022/01/13 04:24:13;;;;;;;26.60;16.27;;;;;;;;;;5050863;28;20041;-58
2022/01/13 04:26:41;;;;;;;26.77;15.77;;;;;;;;;;5050188;28;20041;-58
2022/01/13 04:29:19;;;;;;;25.65;14.90;;;;;;;;;;5050880;28;20144;-58
2022/01/13 04:31:46;;;;;;;26.20;15.70;;;;;;;;;;5050703;28;20639;-58
2022/01/13 04:34:14;;;;;;;24.48;14.82;;;;;;;;;;5050336;28;20049;-58
2022/01/13 04:36:40;;;;;;;27.23;15.18;;;;;;;;;;5050947;28;20458;-58
2022/01/13 04:39:07;;;;;;;26.58;16.10;;;;;;;;;;5050752;28;20037;-58
2022/01/13 04:41:35;;;;;;;24.63;16.02;;;;;;;;;;5052280;28;20052;-58
2022/01/13 04:44:02;;;;;;;26.58;16.10;;;;;;;;;;5054582;28;20052;-58
2022/01/13 04:46:28;;;;;;;24.15;15.23;;;;;;;;;;5054830;28;20094;-58
2022/01/13 04:48:55;;;;;;;26.10;15.50;;;;;;;;;;5053881;28;20048;-58
2022/01/13 04:51:22;;;;;;;25.10;15.80;;;;;;;;;;5054600;28;20114;-58
2022/01/13 04:53:48;;;;;;;25.90;15.77;;;;;;;;;;5054451;28;20045;-58
2022/01/13 04:56:27;;;;;;;25.25;15.70;;;;;;;;;;5053644;28;20045;-58
2022/01/13 04:58:53;;;;;;;24.20;15.50;;;;;;;;;;5054603;28;20041;-58
2022/01/13 05:01:20;;;;;;;24.90;15.55;;;;;;;;;;5054475;28;20108;-58
2022/01/13 05:03:46;;;;;;;24.42;15.30;;;;;;;;;;5053830;28;20106;-58
2022/01/13 05:06:13;;;;;;;23.75;14.50;;;;;;;;;;5054155;28;20049;-58
2022/01/13 05:08:40;;;;;;;24.83;14.80;;;;;;;;;;5053800;28;20060;-58
2022/01/13 05:11:07;;;;;;;25.88;15.02;;;;;;;;;;5053869;28;20045;-59
2022/01/13 05:13:33;;;;;;;24.90;14.32;;;;;;;;;;5054576;28;20061;-59
2022/01/13 05:15:59;;;;;;;26.90;15.20;;;;;;;;;;5053237;28;20045;-59
2022/01/13 05:18:30;;;;;;;24.73;14.18;;;;;;;;;;5054279;28;20041;-59
2022/01/13 05:21:02;;;;;;;26.17;14.95;;;;;;;;;;5053731;28;20079;-59
2022/01/13 05:23:28;;;;;;;24.48;15.15;;;;;;;;;;5053278;28;20056;-59
2022/01/13 05:25:56;;;;;;;26.30;15.50;;;;;;;;;;5053777;28;20045;-58
2022/01/13 05:28:22;;;;;;;25.48;15.13;;;;;;;;;;5054129;28;20095;-58
2022/01/13 05:30:48;;;;;;;24.70;15.68;;;;;;;;;;5052901;28;20049;-58
2022/01/13 05:33:15;;;;;;;24.25;15.10;;;;;;;;;;5053747;28;20053;-58
2022/01/13 05:35:41;;;;;;;24.08;14.55;;;;;;;;;;5053728;28;20045;-58
2022/01/13 05:38:08;;;;;;;21.42;14.23;;;;;;;;;;5053532;28;20480;-58
2022/01/13 05:40:34;;;;;;;23.83;14.65;;;;;;;;;;5053855;28;20045;-58
2022/01/13 05:43:02;;;;;;;23.58;14.07;;;;;;;;;;5053621;28;20106;-58
2022/01/13 05:45:30;;;;;;;23.58;14.27;;;;;;;;;;5052878;28;20052;-58
2022/01/13 05:47:57;;;;;;;25.45;15.73;;;;;;;;;;5053230;28;20488;-59
2022/01/13 05:50:24;;;;;;;26.08;15.45;;;;;;;;;;5053456;28;20045;-58
2022/01/13 05:52:50;;;;;;;26.08;15.50;;;;;;;;;;5051741;28;20044;-59
2022/01/13 05:55:16;;;;;;;24.45;15.27;;;;;;;;;;5053526;28;20036;-58
2022/01/13 05:57:43;;;;;;;23.25;14.57;;;;;;;;;;5052535;28;20114;-59
2022/01/13 06:00:12;;;;;;;24.70;14.85;;;;;;;;;;5053379;28;20053;-59
2022/01/13 06:02:38;;;;;;;25.00;15.05;;;;;;;;;;5053343;28;20049;-59
2022/01/13 06:05:05;;;;;;;24.52;14.93;;;;;;;;;;5052058;28;20056;-58
2022/01/13 06:07:32;;;;;;;25.60;15.48;;;;;;;;;;5053023;28;20099;-58
2022/01/13 06:09:58;;;;;;;25.80;16.23;;;;;;;;;;5053137;28;20091;-58
2022/01/13 06:12:32;;;;;;;24.70;15.55;;;;;;;;;;5052377;28;20044;-58
2022/01/13 06:14:59;;;;;;;26.30;15.90;;;;;;;;;;5052840;28;20049;-58
2022/01/13 06:17:26;;;;;;;26.88;15.60;;;;;;;;;;5052761;28;20045;-58
2022/01/13 06:19:54;;;;;;;23.63;14.77;;;;;;;;;;5052307;28;20049;-59
2022/01/13 06:22:20;;;;;;;28.80;15.70;;;;;;;;;;5051734;28;20132;-59
2022/01/13 06:24:46;;;;;;;26.95;15.70;;;;;;;;;;5052570;28;20049;-58
2022/01/13 06:27:12;;;;;;;26.98;16.90;;;;;;;;;;5050633;28;20045;-59
2022/01/13 06:29:39;;;;;;;26.42;16.60;;;;;;;;;;5052909;28;20099;-59
2022/01/13 06:32:05;;;;;;;24.63;15.63;;;;;;;;;;5052003;28;20060;-58
2022/01/13 06:34:33;;;;;;;26.95;16.30;;;;;;;;;;5052092;28;20052;-58
2022/01/13 06:36:59;;;;;;;25.73;16.02;;;;;;;;;;5052411;28;20045;-58
2022/01/13 06:39:25;;;;;;;25.40;15.43;;;;;;;;;;5052712;28;20110;-58
2022/01/13 06:41:51;;;;;;;25.45;15.63;;;;;;;;;;5051370;28;20102;-58
2022/01/13 06:44:18;;;;;;;26.23;16.02;;;;;;;;;;5052262;28;20095;-58
2022/01/13 06:46:44;;;;;;;24.80;15.55;;;;;;;;;;5051675;28;20052;-58
2022/01/13 06:49:10;;;;;;;23.02;14.68;;;;;;;;;;5051929;28;20041;-60
2022/01/13 06:51:38;;;;;;;25.25;15.55;;;;;;;;;;5052346;28;20091;-58
2022/01/13 06:54:04;;;;;;;27.48;15.10;;;;;;;;;;5051462;28;20049;-58
2022/01/13 06:56:31;;;;;;;26.05;15.52;;;;;;;;;;5052250;28;20049;-58
2022/01/13 06:58:57;;;;;;;25.65;14.98;;;;;;;;;;5051978;28;20092;-58
2022/01/13 07:01:23;;;;;;;23.30;14.38;;;;;;;;;;5034673;28;20060;-58
2022/01/13 07:03:50;;;;;;;24.80;14.65;;;;;;;;;;5031908;28;20136;-58
2022/01/13 07:06:16;;;;;;;22.73;14.32;;;;;;;;;;5031773;28;20061;-58
2022/01/13 07:08:44;;;;;;;23.95;14.70;;;;;;;;;;5031179;28;20049;-58
2022/01/13 07:11:10;;;;;;;24.02;14.85;;;;;;;;;;5032012;28;20041;-57
2022/01/13 07:13:36;;;;;;;23.60;14.50;;;;;;;;;;5031694;28;20484;-57
2022/01/13 07:16:03;;;;;;;22.48;15.23;;;;;;;;;;5030336;28;20100;-58
2022/01/13 07:18:29;;;;;;;24.15;14.63;;;;;;;;;;5031614;28;20495;-58
2022/01/13 07:20:56;;;;;;;24.27;14.95;;;;;;;;;;5031696;28;20095;-59
2022/01/13 07:23:22;;;;;;;21.75;14.25;;;;;;;;;;5031147;28;20048;-58
2022/01/13 07:25:50;;;;;;;25.15;15.00;;;;;;;;;;5031545;28;20041;-58
2022/01/13 07:28:16;;;;;;;24.83;14.43;;;;;;;;;;5031149;28;20136;-59
2022/01/13 07:30:43;;;;;;;23.38;14.38;;;;;;;;;;5031045;28;20037;-59
2022/01/13 07:33:09;;;;;;;22.77;13.70;;;;;;;;;;5048961;28;20535;-57
2022/01/13 07:35:35;;;;;;;22.15;13.70;;;;;;;;;;5051769;28;20053;-57
2022/01/13 07:38:01;;;;;;;24.35;15.23;;;;;;;;;;5050200;28;20056;-57
2022/01/13 07:40:27;;;;;;;23.05;14.43;;;;;;;;;;5051463;28;20538;-57
2022/01/13 07:42:55;;;;;;;23.73;14.00;;;;;;;;;;5051117;28;20094;-58
2022/01/13 07:45:21;;;;;;;23.48;14.25;;;;;;;;;;5050969;28;20055;-57
2022/01/13 07:47:48;;;;;;;20.83;13.63;;;;;;;;;;5050926;28;20045;-57
2022/01/13 07:50:15;;;;;;;21.95;13.43;;;;;;;;;;5050696;28;20095;-59
2022/01/13 07:52:41;;;;;;;21.83;13.88;;;;;;;;;;5051547;28;20067;-57
2022/01/13 07:55:08;;;;;;;22.25;13.90;;;;;;;;;;5051750;28;20103;-58
2022/01/13 07:57:34;;;;;;;21.52;14.48;;;;;;;;;;5050651;28;20119;-58
2022/01/13 08:00:04;;;;;;;22.10;14.00;;;;;;;;;;5051378;28;20114;-57
2022/01/13 08:02:30;;;;;;;23.23;14.75;;;;;;;;;;5051576;28;20412;-58
2022/01/13 08:04:56;;;;;;;21.70;14.57;;;;;;;;;;5049948;28;20091;-57
2022/01/13 08:07:23;;;;;;;23.05;14.13;;;;;;;;;;5051158;28;20045;-58
2022/01/13 08:09:49;;;;;;;22.17;14.10;;;;;;;;;;5051056;28;20099;-58
2022/01/13 08:12:15;;;;;;;19.58;13.05;;;;;;;;;;5050722;28;20495;-58
2022/01/13 08:14:41;;;;;;;20.65;13.13;;;;;;;;;;5051384;28;20253;-57
2022/01/13 08:17:18;;;;;;;21.95;14.40;;;;;;;;;;5050903;28;20055;-57
2022/01/13 08:19:46;;;;;;;22.48;13.43;;;;;;;;;;5050264;28;20045;-58
2022/01/13 08:22:13;;;;;;;22.13;14.27;;;;;;;;;;5051299;28;20049;-57
2022/01/13 08:24:39;;;;;;;21.63;13.00;;;;;;;;;;5051088;28;20049;-57
2022/01/13 08:27:05;;;;;;;24.55;14.00;;;;;;;;;;5050272;28;20049;-57
2022/01/13 08:29:31;;;;;;;21.27;13.30;;;;;;;;;;5051179;28;20051;-58
2022/01/13 08:31:58;;;;;;;22.75;13.40;;;;;;;;;;5050776;28;20041;-58
2022/01/13 08:34:25;;;;;;;21.90;13.45;;;;;;;;;;5050318;28;20516;-58
2022/01/13 08:36:51;;;;;;;20.83;13.63;;;;;;;;;;5050799;28;20114;-58
2022/01/13 08:39:18;;;;;;;20.38;13.00;;;;;;;;;;5050869;28;20102;-59
2022/01/13 08:41:45;;;;;;;20.95;13.95;;;;;;;;;;5050167;28;20045;-59
2022/01/13 08:44:11;;;;;;;21.65;12.98;;;;;;;;;;5051030;28;20410;-57
2022/01/13 08:46:38;;;;;;;18.17;12.00;;;;;;;;;;5050030;28;20480;-58
2022/01/13 08:49:04;;;;;;;19.88;13.10;;;;;;;;;;5050544;28;20045;-57
2022/01/13 08:51:31;;;;;;;21.05;13.88;;;;;;;;;;5050937;28;20095;-57
2022/01/13 08:53:59;;;;;;;19.92;13.82;;;;;;;;;;5049634;28;20107;-58
2022/01/13 08:56:25;;;;;;;22.88;13.60;;;;;;;;;;5051135;28;20045;-57
2022/01/13 08:58:51;;;;;;;20.48;13.75;;;;;;;;;;5050628;28;20099;-57
2022/01/13 09:01:18;;;;;;;21.60;13.90;;;;;;;;;;5050161;28;20439;-57
2022/01/13 09:03:44;;;;;;;21.25;13.65;;;;;;;;;;5050394;28;20057;-58
2022/01/13 09:06:10;;;;;;;21.13;13.18;;;;;;;;;;5050752;28;20099;-57
2022/01/13 09:08:38;;;;;;;20.15;12.82;;;;;;;;;;5049742;28;20106;-58
2022/01/13 09:11:04;;;;;;;20.63;13.35;;;;;;;;;;5050685;28;20075;-58
2022/01/13 09:13:35;;;;;;;21.10;14.00;;;;;;;;;;5050467;28;20082;-58
2022/01/13 09:16:02;;;;;;;20.88;13.32;;;;;;;;;;5049861;28;20106;-57
2022/01/13 09:18:34;;;;;;;20.90;13.55;;;;;;;;;;5050561;28;20049;-57
2022/01/13 09:21:01;;;;;;;20.15;13.02;;;;;;;;;;5050400;28;20486;-57
2022/01/13 09:23:27;;;;;;;20.35;13.35;;;;;;;;;;5049889;28;20053;-57
2022/01/13 09:25:55;;;;;;;19.75;12.65;;;;;;;;;;5050404;28;20041;-57
2022/01/13 09:28:21;;;;;;;20.02;12.88;;;;;;;;;;5052468;28;20041;-58
2022/01/13 09:30:47;;;;;;;20.40;13.23;;;;;;;;;;5053098;28;20566;-58
2022/01/13 09:33:13;;;;;;;19.50;13.15;;;;;;;;;;5053991;28;20049;-57
2022/01/13 09:35:40;;;;;;;21.42;14.15;;;;;;;;;;5053731;28;20045;-57
2022/01/13 09:38:07;;;;;;;21.38;13.45;;;;;;;;;;5053659;28;20041;-57
2022/01/13 09:40:34;;;;;;;20.10;13.07;;;;;;;;;;5053932;28;20484;-57
2022/01/13 09:43:02;;;;;;;18.02;12.88;;;;;;;;;;5052970;28;20056;-58
2022/01/13 09:45:29;;;;;;;19.75;12.65;;;;;;;;;;5053773;28;20049;-58
2022/01/13 09:47:56;;;;;;;20.73;13.40;;;;;;;;;;5053728;28;20041;-59
2022/01/13 09:50:22;;;;;;;19.88;13.30;;;;;;;;;;5053238;28;20079;-58
2022/01/13 09:52:48;;;;;;;20.30;12.85;;;;;;;;;;5053545;28;20045;-58
2022/01/13 09:55:15;;;;;;;19.33;12.77;;;;;;;;;;5053719;28;20037;-58
2022/01/13 09:57:43;;;;;;;21.35;13.20;;;;;;;;;;5052959;28;20095;-58
2022/01/13 10:00:12;;;;;;;19.58;12.65;;;;;;;;;;5053409;28;20045;-57
2022/01/13 10:02:38;;;;;;;20.05;12.90;;;;;;;;;;5053581;28;20099;-58
2022/01/13 10:05:05;;;;;;;19.45;12.88;;;;;;;;;;5052251;28;20515;-58
2022/01/13 10:07:32;;;;;;;20.50;13.23;;;;;;;;;;5053805;28;20049;-58
2022/01/13 10:09:59;;;;;;;20.00;12.30;;;;;;;;;;5052833;28;20455;-58
2022/01/13 10:12:26;;;;;;;20.25;13.43;;;;;;;;;;5052553;28;20477;-58
2022/01/13 10:17:49;;;;;;;21.73;13.20;;;;;;;;;;5052656;28;20110;-58
2022/01/13 10:20:16;;;;;;;19.33;12.45;;;;;;;;;;5052599;28;20037;-58
2022/01/13 10:22:42;;;;;;;19.17;12.65;;;;;;;;;;5052827;28;20048;-58
2022/01/13 10:25:24;;;;;;;17.67;12.25;;;;;;;;;;5052388;28;20095;-59
2022/01/13 10:27:50;;;;;;;17.80;12.20;;;;;;;;;;5052855;28;20554;-58
2022/01/13 10:30:17;;;;;;;18.33;11.85;;;;;;;;;;5053096;28;20040;-58
2022/01/13 10:32:45;;;;;;;19.90;12.88;;;;;;;;;;5051811;28;20103;-58
2022/01/13 10:35:14;;;;;;;18.33;12.43;;;;;;;;;;5052628;28;20041;-58
2022/01/13 10:37:41;;;;;;;19.70;13.43;;;;;;;;;;5052676;28;20056;-58
2022/01/13 10:40:10;;;;;;;19.35;12.52;;;;;;;;;;5051622;28;20049;-58
2022/01/13 10:43:12;;;;;;;19.00;12.40;;;;;;;;;;5053079;28;20049;-59
2022/01/13 10:45:40;;;;;;;17.08;10.82;;;;;;;;;;5053143;28;20055;-59
2022/01/13 10:48:08;;;;;;;19.38;12.60;;;;;;;;;;5051825;28;20095;-59
2022/01/13 10:50:37;;;;;;;20.70;13.10;;;;;;;;;;5052280;28;20049;-58
2022/01/13 10:53:05;;;;;;;19.05;13.05;;;;;;;;;;5051488;28;20053;-58
2022/01/13 10:55:33;;;;;;;19.80;14.00;;;;;;;;;;5052374;28;20419;-59
2022/01/13 10:57:59;;;;;;;18.13;12.65;;;;;;;;;;5052371;28;20049;-58
2022/01/13 11:00:28;;;;;;;18.88;13.27;;;;;;;;;;5051531;28;20103;-58
2022/01/13 11:03:01;;;;;;;18.55;12.43;;;;;;;;;;5052127;28;20480;-58
2022/01/13 11:05:28;;;;;;;19.05;12.43;;;;;;;;;;5052255;28;20053;-58
2022/01/13 11:07:57;;;;;;;21.15;13.55;;;;;;;;;;5051318;28;20048;-58
2022/01/13 11:10:24;;;;;;;23.00;13.45;;;;;;;;;;5052347;28;20049;-58
2022/01/13 11:12:56;;;;;;;18.98;13.35;;;;;;;;;;5051880;28;20484;-58
2022/01/13 11:15:24;;;;;;;20.25;13.02;;;;;;;;;;5051270;28;20500;-58
2022/01/13 11:17:50;;;;;;;20.48;13.15;;;;;;;;;;5051853;28;20480;-58
2022/01/13 11:20:18;;;;;;;18.75;13.20;;;;;;;;;;5052287;28;20049;-58
2022/01/13 11:22:45;;;;;;;19.48;12.88;;;;;;;;;;5051047;28;20045;-58
2022/01/13 11:25:13;;;;;;;22.17;14.00;;;;;;;;;;5052184;28;20102;-58
2022/01/13 11:27:40;;;;;;;19.95;12.90;;;;;;;;;;5051913;28;20443;-58
2022/01/13 11:30:07;;;;;;;20.65;13.68;;;;;;;;;;5050847;28;20049;-58
2022/01/13 11:32:34;;;;;;;20.90;13.60;;;;;;;;;;5051943;28;20114;-58
2022/01/13 11:35:00;;;;;;;20.42;13.63;;;;;;;;;;5051671;28;20102;-58
2022/01/13 11:37:27;;;;;;;19.50;13.50;;;;;;;;;;5050835;28;20033;-58
2022/01/13 11:39:53;;;;;;;20.15;14.20;;;;;;;;;;5051979;28;20407;-58
2022/01/13 11:42:21;;;;;;;19.10;13.93;;;;;;;;;;5050843;28;20090;-58
2022/01/13 11:45:09;;;;;;;23.17;14.15;;;;;;;;;;5051286;28;20560;-58
2022/01/13 11:47:35;;;;;;;19.63;13.85;;;;;;;;;;5051678;28;20041;-58
2022/01/13 11:50:09;;;;;;;21.02;14.10;;;;;;;;;;5050117;28;20045;-58
2022/01/13 11:52:42;;;;;;;21.63;14.23;;;;;;;;;;5051547;28;20059;-58
2022/01/13 11:55:24;;;;;;;22.20;14.07;;;;;;;;;;5051448;28;20455;-58
2022/01/13 11:57:52;;;;;;;20.27;14.45;;;;;;;;;;5050700;28;20103;-58
2022/01/13 12:00:21;;;;;;;21.00;14.20;;;;;;;;;;5051495;28;20048;-57
2022/01/13 12:02:47;;;;;;;20.08;14.30;;;;;;;;;;5051043;28;20045;-58
2022/01/13 12:05:16;;;;;;;22.38;15.50;;;;;;;;;;5050543;28;20064;-58
2022/01/13 12:07:44;;;;;;;21.17;14.50;;;;;;;;;;5051222;28;20057;-58
2022/01/13 12:10:11;;;;;;;19.65;13.68;;;;;;;;;;5051822;28;20045;-58
2022/01/13 12:12:38;;;;;;;22.77;15.27;;;;;;;;;;5050673;28;20040;-58
2022/01/13 12:15:15;;;;;;;21.88;15.02;;;;;;;;;;5050996;28;20055;-58
2022/01/13 12:17:45;;;;;;;22.88;15.60;;;;;;;;;;5050321;28;20037;-58
2022/01/13 12:20:22;;;;;;;21.67;14.63;;;;;;;;;;5051244;28;20071;-58
2022/01/13 12:23:02;;;;;;;20.90;14.60;;;;;;;;;;5051165;28;20041;-58
2022/01/13 12:25:32;;;;;;;20.50;14.40;;;;;;;;;;5050540;28;20099;-58
2022/01/13 12:27:59;;;;;;;20.77;14.20;;;;;;;;;;5050719;28;20080;-58
2022/01/13 12:30:28;;;;;;;21.08;14.57;;;;;;;;;;5051083;28;20045;-58
2022/01/13 12:32:55;;;;;;;20.67;14.60;;;;;;;;;;5049747;28;20523;-58
2022/01/13 12:35:41;;;;;;;19.88;14.38;;;;;;;;;;5051069;28;20087;-58
2022/01/13 12:38:08;;;;;;;21.10;14.70;;;;;;;;;;5050924;28;20080;-58
2022/01/13 12:40:40;;;;;;;20.48;14.75;;;;;;;;;;5050246;28;20053;-58
2022/01/13 12:43:20;;;;;;;21.10;15.00;;;;;;;;;;5050911;28;20082;-58
2022/01/13 12:45:48;;;;;;;20.05;14.73;;;;;;;;;;5050114;28;20053;-58
2022/01/13 12:48:14;;;;;;;20.60;14.65;;;;;;;;;;5050995;28;20095;-58
2022/01/13 12:50:42;;;;;;;19.23;14.43;;;;;;;;;;5050970;28;20040;-58
2022/01/13 12:53:13;;;;;;;21.95;15.32;;;;;;;;;;5050460;28;20107;-58
2022/01/13 12:55:41;;;;;;;20.33;14.77;;;;;;;;;;5050802;28;20057;-58
2022/01/13 12:58:07;;;;;;;20.20;14.52;;;;;;;;;;5050965;28;20495;-58
2022/01/13 13:00:34;;;;;;;19.25;14.48;;;;;;;;;;5050115;28;20059;-57
2022/01/13 13:03:06;;;;;;;20.33;15.23;;;;;;;;;;5053399;28;20048;-58
2022/01/13 13:05:37;;;;;;;21.10;15.00;;;;;;;;;;5054769;28;20049;-58
2022/01/13 13:08:03;;;;;;;19.40;14.00;;;;;;;;;;5053969;28;20045;-57
2022/01/13 13:10:30;;;;;;;19.55;14.48;;;;;;;;;;5054891;28;20051;-58
2022/01/13 13:12:57;;;;;;;18.23;14.00;;;;;;;;;;5054257;28;20055;-58
2022/01/13 13:15:44;;;;;;;19.08;14.07;;;;;;;;;;5053837;28;20106;-58
2022/01/13 13:18:17;;;;;;;21.38;14.95;;;;;;;;;;5054495;28;20053;-58
2022/01/13 13:20:43;;;;;;;20.75;15.05;;;;;;;;;;5054093;28;20041;-58
2022/01/13 13:23:10;;;;;;;19.40;14.85;;;;;;;;;;5054431;28;20049;-58
2022/01/13 13:25:39;;;;;;;21.85;15.32;;;;;;;;;;5054451;28;20411;-58
2022/01/13 13:28:18;;;;;;;20.13;14.45;;;;;;;;;;5053139;28;20230;-58
2022/01/13 13:30:44;;;;;;;19.67;14.80;;;;;;;;;;5053941;28;20122;-58
2022/01/13 13:33:12;;;;;;;19.10;14.73;;;;;;;;;;5053975;28;20049;-58
2022/01/13 13:35:38;;;;;;;20.17;14.30;;;;;;;;;;5053465;28;20103;-58
2022/01/13 13:38:04;;;;;;;20.80;14.82;;;;;;;;;;5054044;28;20048;-58
2022/01/13 13:40:31;;;;;;;20.30;13.95;;;;;;;;;;5054193;28;20045;-57
2022/01/13 13:43:01;;;;;;;19.17;14.55;;;;;;;;;;5053149;28;20056;-58
2022/01/13 13:45:27;;;;;;;19.67;14.43;;;;;;;;;;5053864;28;20139;-58
2022/01/13 13:47:56;;;;;;;20.70;14.80;;;;;;;;;;5053787;28;20041;-58
2022/01/13 13:50:24;;;;;;;18.70;14.38;;;;;;;;;;5053032;28;20455;-58
2022/01/13 13:53:04;;;;;;;18.70;14.15;;;;;;;;;;5053786;28;20095;-58
2022/01/13 13:55:30;;;;;;;17.55;13.75;;;;;;;;;;5053692;28;20057;-58
2022/01/13 13:57:56;;;;;;;19.23;14.90;;;;;;;;;;5052611;28;20535;-58
2022/01/13 14:00:25;;;;;;;20.20;14.80;;;;;;;;;;5053700;28;20094;-58
2022/01/13 14:02:53;;;;;;;18.42;14.30;;;;;;;;;;5053608;28;20037;-58
2022/01/13 14:05:21;;;;;;;18.52;13.90;;;;;;;;;;5052733;28;20049;-58
2022/01/13 14:07:49;;;;;;;19.13;13.93;;;;;;;;;;5053321;28;20041;-58
2022/01/13 14:10:16;;;;;;;20.05;14.30;;;;;;;;;;5052503;28;20095;-58
2022/01/13 14:12:44;;;;;;;18.85;14.32;;;;;;;;;;5053128;28;20531;-58
2022/01/13 14:15:11;;;;;;;17.90;13.95;;;;;;;;;;5052837;28;20049;-58
2022/01/13 14:17:38;;;;;;;17.98;13.52;;;;;;;;;;5052840;28;20442;-58
2022/01/13 14:20:06;;;;;;;19.55;14.00;;;;;;;;;;5053435;28;20486;-58
2022/01/13 14:22:32;;;;;;;21.40;14.80;;;;;;;;;;5053386;28;20099;-57
2022/01/13 14:24:59;;;;;;;19.88;14.20;;;;;;;;;;5051990;28;20052;-58
2022/01/13 14:27:27;;;;;;;17.52;13.40;;;;;;;;;;5053312;28;20102;-58